Edinburg, North Dakota
Current Conditions -  °F | °C
As of 12:35 AM on Saturday 20 Dec 2014 (Local Time) from K2C8 Reporting Station
Haze Haze  
Wind Chill: 28°   Ceiling: 1000
Heat Index: 28°   Visibility: 3mi
Dew Point: 27°   Wind: 0mph
Humidity: 93%   Direction: NA
Pressure: 30"   Gusts: NA
Location:  48.5°N, 97.86°W
Report Text: K2C8 200635Z AUTO 00000KT 3SM BR OVC010 M02/M03 A3000 RMK AO2
Loading
Personal Weather Stations






























Interactive Weather Map New forecast layout! Learn more

10-Day Weather Forecast

Advertisements
Track Severe Weather on mobile